Eikamaru No.2 — JD3056 — position and weather

sailwx.info

Track history (hours):
 
Tides and Currents Weather Stations Pressure Air Temp Water Temp Dewpoint Dewpoint Depression Visibility Wind Speed Wind Dir Waves Ship Positions

Eikamaru No.2

Last reported at 2017-Aug-23 04:59 UTC. Time now 2017-Aug-23 10:05 UTC.
Position N 35°41' E 139°59'.

Length 60 m; draft 3.3 m.

Type: Tanker. MMSI: 431001342.

Date/timePositionNaut miles runAvg speedWind from/ knotsBaromVisibWave heightAir tempDewpointWater temp
2017-Aug-23 04:59N 35°41' E 139°59'4 7.2
2017-Aug-23 04:22N 35°37' E 139°57'1 3.7
2017-Aug-23 04:01N 35°36' E 139°55'4 0.9
2017-Aug-22 23:01N 35°40' E 139°57'011.3
2017-Aug-22 23:00N 35°40' E 139°57'5 0.8
2017-Aug-22 17:33N 35°36' E 139°55'0 0.0
2017-Aug-22 17:25N 35°36' E 139°55'0 0.0
2017-Aug-22 17:00N 35°36' E 139°55'0 0.0
2017-Aug-22 16:25N 35°36' E 139°55'0 0.0
2017-Aug-22 16:01N 35°36' E 139°55'0 0.0
2017-Aug-22 15:30N 35°36' E 139°55'0 0.0
2017-Aug-22 15:00N 35°36' E 139°55'0 0.0
2017-Aug-22 14:30N 35°36' E 139°55'0 0.1
2017-Aug-22 13:59N 35°36' E 139°55'0 0.0
2017-Aug-22 13:30N 35°36' E 139°55'0 0.0
2017-Aug-22 13:00N 35°36' E 139°55'0 0.0
2017-Aug-22 12:30N 35°36' E 139°55'0 0.0
2017-Aug-22 12:00N 35°36' E 139°55'0 0.0
2017-Aug-22 11:30N 35°36' E 139°55'0 0.0
2017-Aug-22 11:00N 35°36' E 139°55'0 0.0
2017-Aug-22 10:30N 35°36' E 139°55'0 0.0
2017-Aug-22 10:00N 35°36' E 139°55'0 0.0
2017-Aug-22 09:30N 35°36' E 139°55'4 7.9
2017-Aug-22 09:01N 35°32' E 139°54'612.6
2017-Aug-22 08:30N 35°27' E 139°50'612.5
2017-Aug-22 08:00N 35°22' E 139°45'611.2
2017-Aug-22 07:30N 35°16' E 139°46'612.1
2017-Aug-22 06:59N 35°10' E 139°47'24310.8
2017-Aug-21 08:26N 34°04' E 135°03'510.7
2017-Aug-21 08:00N 34°09' E 135°02'510.3
2017-Aug-21 07:31N 34°14' E 135°03'1210.3
2017-Aug-21 06:23N 34°24' E 135°09'511.7
2017-Aug-21 06:00N 34°28' E 135°12'611.5
2017-Aug-21 05:27N 34°32' E 135°18'511.5
2017-Aug-21 05:00N 34°36' E 135°22'3 6.3
2017-Aug-21 04:31N 34°34' E 135°25'0 0.0
2017-Aug-21 04:00N 34°34' E 135°25'0 0.0
2017-Aug-21 03:30N 34°34' E 135°25'0 0.0
2017-Aug-21 03:01N 34°34' E 135°25'0 0.0
2017-Aug-21 02:30N 34°34' E 135°25'0 0.0
2017-Aug-21 02:01N 34°34' E 135°25'0 0.0
2017-Aug-21 01:31N 34°34' E 135°25'0 0.0
2017-Aug-21 01:00N 34°34' E 135°25'0 0.0
2017-Aug-21 00:30N 34°34' E 135°25'0 0.0
2017-Aug-21 00:01N 34°34' E 135°25'0 0.0
2017-Aug-20 23:31N 34°34' E 135°25'1 1.8
2017-Aug-20 22:51N 34°35' E 135°25'310.1
2017-Aug-20 22:31N 34°36' E 135°21'3 5.5
2017-Aug-20 22:01N 34°35' E 135°18'0 0.0
2017-Aug-20 21:31N 34°35' E 135°18'0 0.0
2017-Aug-20 21:01N 34°35' E 135°18'0 0.0
2017-Aug-20 20:31N 34°35' E 135°18'0 0.0
2017-Aug-20 20:01N 34°35' E 135°18'0 0.0
2017-Aug-20 19:31N 34°35' E 135°18'0 0.0
2017-Aug-20 19:01N 34°35' E 135°18'2 4.9
2017-Aug-20 18:31N 34°35' E 135°15'612.4
2017-Aug-20 18:00N 34°35' E 135°08'814.4
2017-Aug-20 17:28N 34°37' E 134°58'4 0.1
2017-Aug-19 02:06N 34°36' E 135°03'1 7.5
2017-Aug-19 02:00N 34°36' E 135°04'4 8.6
2017-Aug-19 01:30N 34°32' E 135°05'910.9
2017-Aug-19 00:42N 34°23' E 135°02'22 0.6
2017-Aug-17 10:14N 34°01' E 135°03'312.1
2017-Aug-17 10:00N 34°04' E 135°03'611.6
2017-Aug-17 09:30N 34°10' E 135°03'611.1
2017-Aug-17 09:00N 34°15' E 135°03'1111.2
2017-Aug-17 08:00N 34°25' E 135°10'610.9
2017-Aug-17 07:25N 34°29' E 135°15'511.4
2017-Aug-17 07:00N 34°32' E 135°20'5 8.3
2017-Aug-17 06:28N 34°32' E 135°25'0 0.0
2017-Aug-17 06:00N 34°32' E 135°25'0 0.0
2017-Aug-17 05:30N 34°32' E 135°25'0 0.0
2017-Aug-17 05:00N 34°32' E 135°25'0 0.0
2017-Aug-17 04:30N 34°32' E 135°25'0 0.0
2017-Aug-17 04:00N 34°32' E 135°25'0 0.0
2017-Aug-17 03:30N 34°32' E 135°25'0 0.0
2017-Aug-17 03:00N 34°32' E 135°25'0 0.0
2017-Aug-17 02:30N 34°32' E 135°25'0 0.0
2017-Aug-17 01:59N 34°32' E 135°25'0 0.0
2017-Aug-17 01:29N 34°32' E 135°25'0 0.0
2017-Aug-17 01:00N 34°32' E 135°25'2 4.7
2017-Aug-17 00:30N 34°33' E 135°23'611.2
2017-Aug-17 00:00N 34°30' E 135°17'510.8
2017-Aug-16 23:30N 34°27' E 135°11'510.6
2017-Aug-16 23:00N 34°23' E 135°07'510.5
2017-Aug-16 22:29N 34°18' E 135°04'4 9.5
2017-Aug-16 22:00N 34°14' E 135°02'  
2017-Aug-13 08:29N 34°02' E 135°02'613.2
2017-Aug-13 08:00N 34°08' E 135°02'612.9
2017-Aug-13 07:31N 34°14' E 135°03'1213.1
2017-Aug-13 06:34N 34°25' E 135°09'312.8
2017-Aug-13 06:18N 34°28' E 135°12'412.6
2017-Aug-13 05:58N 34°31' E 135°16'611.8
2017-Aug-13 05:29N 34°35' E 135°21'510.4
2017-Aug-13 05:00N 34°39' E 135°25'  
Track history (hours):
 
Tides and Currents Weather Stations Pressure Air Temp Water Temp Dewpoint Dewpoint Depression Visibility Wind Speed Wind Dir Waves Ship Positions

Eikamaru No.2

Last reported at 2017-Aug-23 04:59 UTC. Time now 2017-Aug-23 10:05 UTC.
Position N 35°41' E 139°59'.

Length 60 m; draft 3.3 m.

Type: Tanker. MMSI: 431001342.

Date/timePositionNaut miles runAvg speedWind from/ knotsBaromVisibWave heightAir tempDewpointWater temp
2017-Aug-23 04:59N 35°41' E 139°59'4 7.2
2017-Aug-23 04:22N 35°37' E 139°57'1 3.7
2017-Aug-23 04:01N 35°36' E 139°55'4 0.9
2017-Aug-22 23:01N 35°40' E 139°57'011.3
2017-Aug-22 23:00N 35°40' E 139°57'5 0.8
2017-Aug-22 17:33N 35°36' E 139°55'0 0.0
2017-Aug-22 17:25N 35°36' E 139°55'0 0.0
2017-Aug-22 17:00N 35°36' E 139°55'0 0.0
2017-Aug-22 16:25N 35°36' E 139°55'0 0.0
2017-Aug-22 16:01N 35°36' E 139°55'0 0.0
2017-Aug-22 15:30N 35°36' E 139°55'0 0.0
2017-Aug-22 15:00N 35°36' E 139°55'0 0.0
2017-Aug-22 14:30N 35°36' E 139°55'0 0.1
2017-Aug-22 13:59N 35°36' E 139°55'0 0.0
2017-Aug-22 13:30N 35°36' E 139°55'0 0.0
2017-Aug-22 13:00N 35°36' E 139°55'0 0.0
2017-Aug-22 12:30N 35°36' E 139°55'0 0.0
2017-Aug-22 12:00N 35°36' E 139°55'0 0.0
2017-Aug-22 11:30N 35°36' E 139°55'0 0.0
2017-Aug-22 11:00N 35°36' E 139°55'0 0.0
2017-Aug-22 10:30N 35°36' E 139°55'0 0.0
2017-Aug-22 10:00N 35°36' E 139°55'0 0.0
2017-Aug-22 09:30N 35°36' E 139°55'4 7.9
2017-Aug-22 09:01N 35°32' E 139°54'612.6
2017-Aug-22 08:30N 35°27' E 139°50'612.5
2017-Aug-22 08:00N 35°22' E 139°45'611.2
2017-Aug-22 07:30N 35°16' E 139°46'612.1
2017-Aug-22 06:59N 35°10' E 139°47'24310.8
2017-Aug-21 08:26N 34°04' E 135°03'510.7
2017-Aug-21 08:00N 34°09' E 135°02'510.3
2017-Aug-21 07:31N 34°14' E 135°03'1210.3
2017-Aug-21 06:23N 34°24' E 135°09'511.7
2017-Aug-21 06:00N 34°28' E 135°12'611.5
2017-Aug-21 05:27N 34°32' E 135°18'511.5
2017-Aug-21 05:00N 34°36' E 135°22'3 6.3
2017-Aug-21 04:31N 34°34' E 135°25'0 0.0
2017-Aug-21 04:00N 34°34' E 135°25'0 0.0
2017-Aug-21 03:30N 34°34' E 135°25'0 0.0
2017-Aug-21 03:01N 34°34' E 135°25'0 0.0
2017-Aug-21 02:30N 34°34' E 135°25'0 0.0
2017-Aug-21 02:01N 34°34' E 135°25'0 0.0
2017-Aug-21 01:31N 34°34' E 135°25'0 0.0
2017-Aug-21 01:00N 34°34' E 135°25'0 0.0
2017-Aug-21 00:30N 34°34' E 135°25'0 0.0
2017-Aug-21 00:01N 34°34' E 135°25'0 0.0
2017-Aug-20 23:31N 34°34' E 135°25'1 1.8
2017-Aug-20 22:51N 34°35' E 135°25'310.1
2017-Aug-20 22:31N 34°36' E 135°21'3 5.5
2017-Aug-20 22:01N 34°35' E 135°18'0 0.0
2017-Aug-20 21:31N 34°35' E 135°18'0 0.0
2017-Aug-20 21:01N 34°35' E 135°18'0 0.0
2017-Aug-20 20:31N 34°35' E 135°18'0 0.0
2017-Aug-20 20:01N 34°35' E 135°18'0 0.0
2017-Aug-20 19:31N 34°35' E 135°18'0 0.0
2017-Aug-20 19:01N 34°35' E 135°18'2 4.9
2017-Aug-20 18:31N 34°35' E 135°15'612.4
2017-Aug-20 18:00N 34°35' E 135°08'814.4
2017-Aug-20 17:28N 34°37' E 134°58'4 0.1
2017-Aug-19 02:06N 34°36' E 135°03'1 7.5
2017-Aug-19 02:00N 34°36' E 135°04'4 8.6
2017-Aug-19 01:30N 34°32' E 135°05'910.9
2017-Aug-19 00:42N 34°23' E 135°02'22 0.6
2017-Aug-17 10:14N 34°01' E 135°03'312.1
2017-Aug-17 10:00N 34°04' E 135°03'611.6
2017-Aug-17 09:30N 34°10' E 135°03'611.1
2017-Aug-17 09:00N 34°15' E 135°03'1111.2
2017-Aug-17 08:00N 34°25' E 135°10'610.9
2017-Aug-17 07:25N 34°29' E 135°15'511.4
2017-Aug-17 07:00N 34°32' E 135°20'5 8.3
2017-Aug-17 06:28N 34°32' E 135°25'0 0.0
2017-Aug-17 06:00N 34°32' E 135°25'0 0.0
2017-Aug-17 05:30N 34°32' E 135°25'0 0.0
2017-Aug-17 05:00N 34°32' E 135°25'0 0.0
2017-Aug-17 04:30N 34°32' E 135°25'0 0.0
2017-Aug-17 04:00N 34°32' E 135°25'0 0.0
2017-Aug-17 03:30N 34°32' E 135°25'0 0.0
2017-Aug-17 03:00N 34°32' E 135°25'0 0.0
2017-Aug-17 02:30N 34°32' E 135°25'0 0.0
2017-Aug-17 01:59N 34°32' E 135°25'0 0.0
2017-Aug-17 01:29N 34°32' E 135°25'0 0.0
2017-Aug-17 01:00N 34°32' E 135°25'2 4.7
2017-Aug-17 00:30N 34°33' E 135°23'611.2
2017-Aug-17 00:00N 34°30' E 135°17'510.8
2017-Aug-16 23:30N 34°27' E 135°11'510.6
2017-Aug-16 23:00N 34°23' E 135°07'510.5
2017-Aug-16 22:29N 34°18' E 135°04'4 9.5
2017-Aug-16 22:00N 34°14' E 135°02'  
2017-Aug-13 08:29N 34°02' E 135°02'613.2
2017-Aug-13 08:00N 34°08' E 135°02'612.9
2017-Aug-13 07:31N 34°14' E 135°03'1213.1
2017-Aug-13 06:34N 34°25' E 135°09'312.8
2017-Aug-13 06:18N 34°28' E 135°12'412.6
2017-Aug-13 05:58N 34°31' E 135°16'611.8
2017-Aug-13 05:29N 34°35' E 135°21'510.4
2017-Aug-13 05:00N 34°39' E 135°25'  

Dump ship's entire track history